Time;durP1;ratioP1;P1;durP2;ratioP2;P2;SDS_P1;SDS_P2;PMS_P1;PMS_P2;Temp;Humidity;BMP_temperature;BMP_pressure;BME280_temperature;BME280_humidity;BME280_pressure;Samples;Min_cycle;Max_cycle;Signal;HPM_P1;HPM_P2
2022/04/02 00:00:23;;;;;;;;;;;;;;;2.87;52.59;96597.53;12749474;23;19922;-76
2022/04/02 00:05:43;;;;;;;;;;;;;;;2.78;52.31;96585.13;12749239;23;20342;-77
2022/04/02 00:11:04;;;;;;;;;;;;;;;2.73;52.17;96577.13;12758983;23;19920;-77
2022/04/02 00:16:25;;;;;;;;;;;;;;;2.68;52.06;96583.59;12737770;23;19943;-77
2022/04/02 00:21:46;;;;;;;;;;;;;;;2.64;51.93;96577.78;12758396;23;19927;-77
2022/04/02 00:27:07;;;;;;;;;;;;;;;2.67;52.20;96577.38;12737465;23;19924;-77
2022/04/02 00:32:29;;;;;;;;;;;;;;;2.70;52.06;96578.25;12718049;23;19925;-77
2022/04/02 00:37:49;;;;;;;;;;;;;;;2.70;52.45;96578.25;12716915;23;19967;-77
2022/04/02 00:43:23;;;;;;;;;;;;;;;2.65;52.50;96576.50;12758653;23;19924;-77
2022/04/02 00:48:46;;;;;;;;;;;;;;;2.66;52.19;96586.22;12720676;23;20205;-77
2022/04/02 00:54:14;;;;;;;;;;;;;;;2.70;52.18;96576.25;12741232;23;19975;-77
2022/04/02 00:59:35;;;;;;;;;;;;;;;2.66;52.20;96586.22;12735668;23;20232;-77
2022/04/02 01:04:59;;;;;;;;;;;;;;;2.63;51.55;96587.34;12731861;23;19921;-77
2022/04/02 01:10:25;;;;;;;;;;;;;;;2.59;51.33;96587.75;12738908;23;19925;-79
2022/04/02 01:15:47;;;;;;;;;;;;;;;2.57;50.85;96591.06;12738804;23;19925;-79
2022/04/02 01:21:10;;;;;;;;;;;;;;;2.49;51.13;96586.94;12698213;23;19925;-80
2022/04/02 01:26:38;;;;;;;;;;;;;;;2.48;50.84;96591.72;12739297;23;19920;-77
2022/04/02 01:32:06;;;;;;;;;;;;;;;2.44;51.13;96593.44;12718626;23;19979;-79
2022/04/02 01:37:27;;;;;;;;;;;;;;;2.42;50.84;96591.25;12717770;23;19948;-80
2022/04/02 01:42:53;;;;;;;;;;;;;;;2.46;51.23;96597.09;12740265;23;20276;-80
2022/04/02 01:48:15;;;;;;;;;;;;;;;2.46;51.23;96590.84;12740885;23;19920;-79
2022/04/02 01:53:45;;;;;;;;;;;;;;;2.45;50.44;96598.38;12739739;23;20251;-79
2022/04/02 01:59:07;;;;;;;;;;;;;;;2.38;50.62;96593.69;12756754;23;19920;-77
2022/04/02 02:04:27;;;;;;;;;;;;;;;2.28;50.95;96596.34;12735954;23;19927;-77
2022/04/02 02:09:48;;;;;;;;;;;;;;;2.30;50.83;96587.53;12719789;23;20316;-77
2022/04/02 02:15:19;;;;;;;;;;;;;;;2.28;50.67;96598.38;12721646;23;19928;-77
2022/04/02 02:20:50;;;;;;;;;;;;;;;2.22;51.47;96601.38;12740069;23;20239;-77
2022/04/02 02:26:11;;;;;;;;;;;;;;;2.20;51.94;96609.47;12762095;23;19925;-77
2022/04/02 02:31:32;;;;;;;;;;;;;;;2.19;52.18;96612.78;12739263;23;19931;-77
2022/04/02 02:36:53;;;;;;;;;;;;;;;2.12;52.16;96616.34;12759892;23;19925;-77
2022/04/02 02:42:14;;;;;;;;;;;;;;;2.11;52.44;96617.63;12760757;23;19968;-77
2022/04/02 02:47:42;;;;;;;;;;;;;;;2.05;52.57;96625.41;12699859;23;19948;-77
2022/04/02 02:53:04;;;;;;;;;;;;;;;1.95;53.05;96622.56;12739377;23;19932;-77
2022/04/02 02:58:25;;;;;;;;;;;;;;;1.82;54.32;96637.31;12717142;23;19920;-77
2022/04/02 03:03:45;;;;;;;;;;;;;;;1.77;54.35;96640.31;12719061;23;19927;-77
2022/04/02 03:09:09;;;;;;;;;;;;;;;1.58;54.40;96635.31;12698300;23;19951;-77
2022/04/02 03:14:31;;;;;;;;;;;;;;;1.58;54.71;96630.56;12738965;23;19932;-77
2022/04/02 03:19:54;;;;;;;;;;;;;;;1.52;55.44;96632.06;12718581;23;19928;-77
2022/04/02 03:25:15;;;;;;;;;;;;;;;1.58;54.85;96629.81;12740582;23;19926;-77
2022/04/02 03:30:38;;;;;;;;;;;;;;;1.56;55.68;96630.38;12718512;23;19927;-77
2022/04/02 03:35:59;;;;;;;;;;;;;;;1.57;55.27;96623.59;12758847;23;19928;-77
2022/04/02 03:41:19;;;;;;;;;;;;;;;1.58;56.09;96621.56;12697768;23;19920;-76
2022/04/02 03:52:30;;;;;;;;;;;;;;;1.61;55.83;96628.69;12718095;23;19920;-77
2022/04/02 03:57:59;;;;;;;;;;;;;;;1.49;56.69;96638.69;12758231;23;19920;-77
2022/04/02 04:03:21;;;;;;;;;;;;;;;1.43;55.88;96642.38;12757022;23;19928;-77
2022/04/02 04:08:45;;;;;;;;;;;;;;;1.44;55.99;96643.81;12735909;23;19953;-77
2022/04/02 04:14:06;;;;;;;;;;;;;;;1.44;56.10;96651.34;12715121;23;19960;-77
2022/04/02 04:19:27;;;;;;;;;;;;;;;1.43;55.64;96663.66;12758536;23;19972;-77
2022/04/02 04:24:48;;;;;;;;;;;;;;;1.38;55.53;96670.09;12742738;23;19944;-79
2022/04/02 04:30:09;;;;;;;;;;;;;;;1.31;55.78;96690.13;12722051;23;19920;-79
2022/04/02 04:35:30;;;;;;;;;;;;;;;1.22;56.09;96682.47;12762612;23;19929;-79
2022/04/02 04:40:51;;;;;;;;;;;;;;;1.30;56.19;96688.66;12763324;23;19925;-79
2022/04/02 04:46:17;;;;;;;;;;;;;;;1.28;56.49;96691.97;12743127;23;19927;-80
2022/04/02 04:51:40;;;;;;;;;;;;;;;1.29;56.11;96695.44;12721541;23;19925;-79
2022/04/02 04:57:01;;;;;;;;;;;;;;;1.29;56.30;96698.94;12765059;23;20324;-80
2022/04/02 05:02:22;;;;;;;;;;;;;;;1.29;55.50;96704.44;12746667;23;20126;-79
2022/04/02 05:07:46;;;;;;;;;;;;;;;1.40;54.97;96706.00;12726694;23;20320;-79
2022/04/02 05:13:08;;;;;;;;;;;;;;;1.38;55.09;96712.06;12763337;23;20320;-79
2022/04/02 05:18:30;;;;;;;;;;;;;;;1.50;55.21;96722.66;12765338;23;19921;-79
2022/04/02 05:23:51;;;;;;;;;;;;;;;1.48;54.63;96720.47;12744767;23;19928;-80
2022/04/02 05:29:12;;;;;;;;;;;;;;;1.44;55.25;96726.34;12744106;23;19936;-79
2022/04/02 05:34:33;;;;;;;;;;;;;;;1.35;55.55;96731.69;12761017;23;19924;-79
2022/04/02 05:39:53;;;;;;;;;;;;;;;1.32;55.92;96741.78;12741092;23;20209;-79
2022/04/02 05:45:15;;;;;;;;;;;;;;;1.38;56.08;96745.06;12740058;23;19927;-80
2022/04/02 05:50:36;;;;;;;;;;;;;;;1.49;56.34;96748.69;12740551;23;19947;-77
2022/04/02 05:55:57;;;;;;;;;;;;;;;1.52;56.77;96753.06;12761272;23;19920;-77
2022/04/02 06:01:18;;;;;;;;;;;;;;;1.49;57.00;96748.69;12747894;23;20227;-77
2022/04/02 06:06:39;;;;;;;;;;;;;;;1.44;56.70;96758.59;12726371;23;19925;-77
2022/04/02 06:12:01;;;;;;;;;;;;;;;1.37;57.87;96757.38;12739633;23;19921;-77
2022/04/02 06:17:22;;;;;;;;;;;;;;;1.44;57.37;96764.84;12739032;23;20394;-77
2022/04/02 06:22:43;;;;;;;;;;;;;;;1.39;57.52;96762.31;12740407;23;19931;-77
2022/04/02 06:28:04;;;;;;;;;;;;;;;1.49;57.21;96765.19;12759905;23;19921;-76
2022/04/02 06:33:24;;;;;;;;;;;;;;;1.66;57.48;96751.53;12759346;23;19959;-77
2022/04/02 06:38:45;;;;;;;;;;;;;;;1.80;57.27;96755.50;12717948;23;19927;-76
2022/04/02 06:44:08;;;;;;;;;;;;;;;1.84;56.85;96766.13;12738786;23;20259;-77
2022/04/02 06:49:28;;;;;;;;;;;;;;;1.98;56.80;96754.28;12719299;23;19943;-77
2022/04/02 06:54:49;;;;;;;;;;;;;;;2.15;56.03;96758.38;12718732;23;19928;-77
2022/04/02 07:00:11;;;;;;;;;;;;;;;2.14;55.08;96765.91;12729804;23;19979;-77
2022/04/02 07:05:31;;;;;;;;;;;;;;;2.02;54.70;96770.38;12709507;23;19991;-77
2022/04/02 07:10:52;;;;;;;;;;;;;;;2.12;54.13;96767.75;12738879;23;19920;-77
2022/04/02 07:16:13;;;;;;;;;;;;;;;2.18;54.71;96771.03;12718606;23;19979;-77
2022/04/02 07:21:35;;;;;;;;;;;;;;;2.25;54.32;96770.25;12759618;23;19943;-77
2022/04/02 07:26:56;;;;;;;;;;;;;;;2.41;53.69;96779.84;12738986;23;19921;-77
2022/04/02 07:32:17;;;;;;;;;;;;;;;2.52;53.52;96793.19;12737821;23;19920;-77
2022/04/02 07:37:45;;;;;;;;;;;;;;;2.50;52.74;96789.50;12738695;23;19943;-77
2022/04/02 07:43:12;;;;;;;;;;;;;;;2.51;52.66;96802.72;12718242;23;19921;-77
2022/04/02 07:48:35;;;;;;;;;;;;;;;2.63;52.44;96810.53;12717585;23;19924;-77
2022/04/02 07:53:59;;;;;;;;;;;;;;;2.77;51.13;96795.16;12738642;23;19928;-77
2022/04/02 07:59:31;;;;;;;;;;;;;;;2.94;52.00;96800.69;12733289;23;20249;-77
2022/04/02 08:05:05;;;;;;;;;;;;;;;3.03;51.62;96799.31;12717873;23;19920;-77
2022/04/02 08:10:28;;;;;;;;;;;;;;;3.17;50.78;96814.97;12759399;23;20342;-77
2022/04/02 08:15:54;;;;;;;;;;;;;;;3.38;49.80;96830.41;12738588;23;19947;-77
2022/04/02 08:21:15;;;;;;;;;;;;;;;3.52;49.46;96825.28;12758759;23;19948;-77
2022/04/02 08:26:56;;;;;;;;;;;;;;;3.87;48.73;96825.97;12737521;23;20235;-78
2022/04/02 08:32:23;;;;;;;;;;;;;;;4.54;47.79;96825.59;12738347;23;19921;-77
2022/04/02 08:38:03;;;;;;;;;;;;;;;5.38;48.39;96833.16;12743110;23;19928;-82
2022/04/02 08:43:39;;;;;;;;;;;;;;;5.94;44.73;96840.59;12798751;23;19904;-87
2022/04/02 08:49:19;;;;;;;;;;;;;;;6.02;43.93;96849.50;12775167;23;20446;-83
2022/04/02 08:54:40;;;;;;;;;;;;;;;5.96;43.92;96862.91;12782473;23;19904;-83
2022/04/02 09:00:04;;;;;;;;;;;;;;;5.70;43.19;96864.50;12786930;23;19940;-81
2022/04/02 09:05:25;;;;;;;;;;;;;;;5.66;44.12;96866.97;12750204;23;19967;-79
2022/04/02 09:10:58;;;;;;;;;;;;;;;5.56;42.52;96871.78;12764084;23;19909;-83
2022/04/02 09:16:26;;;;;;;;;;;;;;;5.64;43.27;96873.09;12796063;23;19928;-77
2022/04/02 09:21:59;;;;;;;;;;;;;;;5.72;42.56;96873.69;12798091;23;19920;-81
2022/04/02 09:27:39;;;;;;;;;;;;;;;5.66;42.45;96894.66;12748093;23;19904;-82
2022/04/02 09:33:18;;;;;;;;;;;;;;;5.71;42.36;96890.88;12771387;23;19927;-82
2022/04/02 09:38:57;;;;;;;;;;;;;;;5.93;41.21;96894.56;12776690;23;19971;-77
2022/04/02 09:44:37;;;;;;;;;;;;;;;6.44;39.55;96901.63;12720847;23;19996;-77
2022/04/02 09:50:14;;;;;;;;;;;;;;;6.39;38.98;96905.44;12761054;23;19967;-77
2022/04/02 09:55:44;;;;;;;;;;;;;;;6.13;39.93;96904.31;12700171;23;19920;-77
2022/04/02 10:01:05;;;;;;;;;;;;;;;5.92;40.08;96915.97;12720049;23;19928;-77
2022/04/02 10:06:27;;;;;;;;;;;;;;;6.02;39.60;96925.03;12720370;23;19987;-77
2022/04/02 10:11:55;;;;;;;;;;;;;;;6.18;38.86;96925.47;12741058;23;19966;-77
2022/04/02 10:17:15;;;;;;;;;;;;;;;6.36;38.66;96923.22;12720288;23;19921;-77
2022/04/02 10:22:42;;;;;;;;;;;;;;;6.62;39.55;96937.47;12761460;23;19920;-77
2022/04/02 10:28:03;;;;;;;;;;;;;;;6.55;37.96;96937.03;12740733;23;20239;-77
2022/04/02 10:33:27;;;;;;;;;;;;;;;6.35;38.52;96935.63;12740035;23;19927;-77
2022/04/02 10:38:48;;;;;;;;;;;;;;;6.27;38.22;96938.56;12719529;23;19928;-77
2022/04/02 10:44:21;;;;;;;;;;;;;;;6.14;38.64;96946.59;12740760;23;19921;-77
2022/04/02 10:49:41;;;;;;;;;;;;;;;5.98;38.60;96941.38;12740072;23;20320;-77
2022/04/02 10:55:03;;;;;;;;;;;;;;;6.22;38.97;96947.19;12760401;23;19920;-77
2022/04/02 11:00:24;;;;;;;;;;;;;;;6.23;39.00;96954.16;12729845;23;19924;-76
2022/04/02 11:06:13;;;;;;;;;;;;;;;6.28;38.42;96961.47;12725434;23;19924;-78
2022/04/02 11:11:34;;;;;;;;;;;;;;;6.31;38.54;96963.06;12760552;23;19927;-77
2022/04/02 11:16:55;;;;;;;;;;;;;;;6.25;38.02;96968.16;12739256;23;20051;-78
2022/04/02 11:22:20;;;;;;;;;;;;;;;6.19;38.37;96976.06;12760363;23;19920;-77
2022/04/02 11:27:41;;;;;;;;;;;;;;;6.09;38.20;96973.28;12718862;23;19927;-78
2022/04/02 11:33:06;;;;;;;;;;;;;;;5.96;38.48;96977.22;12738099;23;19921;-77
2022/04/02 11:38:32;;;;;;;;;;;;;;;5.90;38.44;96985.09;12718838;23;19921;-78
2022/04/02 11:44:07;;;;;;;;;;;;;;;5.79;38.15;96980.09;12718178;23;19924;-79
2022/04/02 11:49:28;;;;;;;;;;;;;;;5.93;38.21;96978.38;12718071;23;19921;-79
2022/04/02 11:54:49;;;;;;;;;;;;;;;6.27;38.55;96976.63;12759805;23;19921;-79
2022/04/02 12:00:10;;;;;;;;;;;;;;;6.48;38.16;96978.81;12751233;23;20395;-80
2022/04/02 12:05:35;;;;;;;;;;;;;;;6.73;37.46;96984.72;12750683;23;19921;-77
2022/04/02 12:10:56;;;;;;;;;;;;;;;6.90;37.40;96986.59;12739502;23;19927;-79
2022/04/02 12:16:17;;;;;;;;;;;;;;;7.10;36.97;96981.72;12766209;23;19921;-83
2022/04/02 12:21:42;;;;;;;;;;;;;;;7.17;36.33;96983.59;12749770;23;19921;-79
2022/04/02 12:27:09;;;;;;;;;;;;;;;7.25;36.24;96994.50;12706839;23;19925;-78
2022/04/02 12:32:33;;;;;;;;;;;;;;;7.49;36.04;96979.47;12747175;23;19971;-80
2022/04/02 12:38:02;;;;;;;;;;;;;;;7.66;35.82;96982.03;12720864;23;19935;-79
2022/04/02 12:43:30;;;;;;;;;;;;;;;7.88;35.96;96984.81;12720901;23;19920;-79
2022/04/02 12:48:51;;;;;;;;;;;;;;;8.07;36.23;96976.34;12749172;23;19997;-80
2022/04/02 12:54:11;;;;;;;;;;;;;;;8.11;35.04;96971.06;12742876;23;19920;-79
2022/04/02 12:59:32;;;;;;;;;;;;;;;8.16;35.67;96975.53;12743349;23;19928;-79
2022/04/02 13:04:53;;;;;;;;;;;;;;;8.21;34.88;96977.25;12758742;23;19920;-79
2022/04/02 13:10:14;;;;;;;;;;;;;;;8.18;34.62;96986.06;12765159;23;19927;-79
2022/04/02 13:15:35;;;;;;;;;;;;;;;8.00;34.05;96991.16;12721922;23;20346;-79
2022/04/02 13:20:56;;;;;;;;;;;;;;;7.71;34.20;96983.72;12741839;23;19946;-80
2022/04/02 13:26:17;;;;;;;;;;;;;;;7.74;33.99;96990.16;12742555;23;19968;-77
2022/04/02 13:31:41;;;;;;;;;;;;;;;7.74;33.92;96988.13;12741968;23;19927;-77
2022/04/02 13:37:09;;;;;;;;;;;;;;;7.45;33.54;97004.94;12752615;23;19920;-84
2022/04/02 13:42:50;;;;;;;;;;;;;;;7.42;33.88;96997.78;12781707;23;19909;-82
2022/04/02 13:48:11;;;;;;;;;;;;;;;7.62;33.69;96986.56;12799403;23;19920;-83
2022/04/02 13:53:32;;;;;;;;;;;;;;;7.43;33.37;96988.16;12772555;23;20336;-78
2022/04/02 13:58:55;;;;;;;;;;;;;;;7.43;33.57;96995.72;12741159;23;19921;-77
2022/04/02 14:04:16;;;;;;;;;;;;;;;7.33;33.21;97012.44;12717757;23;20328;-77
2022/04/02 14:09:38;;;;;;;;;;;;;;;7.24;33.53;97004.13;12745358;23;19921;-81
2022/04/02 14:15:02;;;;;;;;;;;;;;;7.29;34.03;96998.28;12719904;23;20387;-80
2022/04/02 14:20:22;;;;;;;;;;;;;;;7.18;33.07;96999.66;12761843;23;19921;-77
2022/04/02 14:25:52;;;;;;;;;;;;;;;7.34;33.61;97002.06;12740693;23;19929;-77
2022/04/02 14:31:19;;;;;;;;;;;;;;;7.35;32.94;97012.59;12698968;23;19925;-77
2022/04/02 14:36:52;;;;;;;;;;;;;;;7.26;32.35;97018.19;12761015;23;19920;-77
2022/04/02 14:42:13;;;;;;;;;;;;;;;7.03;32.48;97022.19;12695062;23;19921;-76
2022/04/02 14:47:52;;;;;;;;;;;;;;;6.95;32.17;97020.88;12740189;23;19988;-76
2022/04/02 14:53:19;;;;;;;;;;;;;;;6.92;32.26;97020.03;12719339;23;20338;-77
2022/04/02 14:58:52;;;;;;;;;;;;;;;6.94;32.88;97024.97;12754164;23;20213;-80
2022/04/02 15:04:12;;;;;;;;;;;;;;;7.06;33.03;97034.91;12747365;23;19944;-80
2022/04/02 15:09:45;;;;;;;;;;;;;;;7.07;32.36;97030.81;12812088;23;19905;-85
2022/04/02 15:15:07;;;;;;;;;;;;;;;6.97;32.08;97038.41;12773693;23;19927;-79
2022/04/02 15:20:28;;;;;;;;;;;;;;;6.97;32.23;97038.41;12738832;23;19927;-77
2022/04/02 15:25:51;;;;;;;;;;;;;;;6.93;32.01;97038.13;12739553;23;19924;-78
2022/04/02 15:31:12;;;;;;;;;;;;;;;6.90;32.12;97044.84;12759975;23;20035;-77
2022/04/02 15:36:32;;;;;;;;;;;;;;;6.90;32.12;97042.09;12761839;23;20312;-77
2022/04/02 15:42:19;;;;;;;;;;;;;;;6.82;32.18;97047.78;12784348;23;19921;-84
2022/04/02 15:47:41;;;;;;;;;;;;;;;6.71;32.46;97055.97;12700524;23;19927;-77
2022/04/02 15:53:08;;;;;;;;;;;;;;;6.58;32.63;97068.25;12760873;23;19927;-78
2022/04/02 15:58:29;;;;;;;;;;;;;;;6.51;32.47;97056.00;12758455;23;19924;-75
2022/04/02 16:03:50;;;;;;;;;;;;;;;6.45;32.61;97066.63;12717315;23;19975;-73
2022/04/02 16:09:33;;;;;;;;;;;;;;;6.38;32.41;97069.56;12738087;23;19994;-74
2022/04/02 16:15:12;;;;;;;;;;;;;;;6.37;32.68;97066.06;12717767;23;19925;-74
2022/04/02 16:20:33;;;;;;;;;;;;;;;6.31;32.83;97071.16;12738772;23;19975;-77
2022/04/02 16:25:55;;;;;;;;;;;;;;;6.25;32.56;97082.53;12717957;23;19924;-76
2022/04/02 16:31:17;;;;;;;;;;;;;;;6.08;33.12;97071.59;12760869;23;20244;-76
2022/04/02 16:36:38;;;;;;;;;;;;;;;5.96;33.14;97088.03;12718001;23;19924;-76
2022/04/02 16:42:06;;;;;;;;;;;;;;;5.89;33.42;97094.41;12759599;23;19924;-77
2022/04/02 16:47:27;;;;;;;;;;;;;;;5.79;33.51;97104.72;12718703;23;19927;-77
2022/04/02 16:52:49;;;;;;;;;;;;;;;5.73;33.58;97113.28;12698667;23;19951;-78
2022/04/02 16:58:10;;;;;;;;;;;;;;;5.63;34.23;97122.88;12759673;23;19931;-78
2022/04/02 17:03:31;;;;;;;;;;;;;;;5.52;34.45;97126.19;12718732;23;19925;-78
2022/04/02 17:08:52;;;;;;;;;;;;;;;5.44;34.12;97131.81;12749598;23;19912;-79
2022/04/02 17:14:12;;;;;;;;;;;;;;;5.36;34.91;97133.97;12737047;23;19975;-77
2022/04/02 17:19:34;;;;;;;;;;;;;;;5.24;34.52;97135.78;12692266;23;20391;-79
2022/04/02 17:25:02;;;;;;;;;;;;;;;5.10;34.70;97141.66;12696822;23;20390;-76
2022/04/02 17:30:24;;;;;;;;;;;;;;;5.03;34.80;97144.53;12762607;23;19921;-80
2022/04/02 17:35:51;;;;;;;;;;;;;;;4.93;34.60;97143.75;12789428;23;19924;-77
2022/04/02 17:41:15;;;;;;;;;;;;;;;4.89;35.31;97149.66;12765776;23;19921;-82
2022/04/02 17:46:37;;;;;;;;;;;;;;;4.81;35.32;97152.50;12774394;23;19969;-77
2022/04/02 17:51:58;;;;;;;;;;;;;;;4.77;35.65;97154.97;12736270;23;19936;-80
2022/04/02 17:57:23;;;;;;;;;;;;;;;4.78;35.84;97161.22;12751599;23;19920;-77
2022/04/02 18:02:50;;;;;;;;;;;;;;;4.77;35.24;97166.03;12725260;23;19920;-83
2022/04/02 18:08:12;;;;;;;;;;;;;;;4.75;35.81;97184.50;12744967;23;19920;-80
2022/04/02 18:13:46;;;;;;;;;;;;;;;4.75;35.81;97190.03;12792456;23;19920;-85
2022/04/02 18:19:07;;;;;;;;;;;;;;;4.75;35.41;97201.81;12749824;23;19912;-82
2022/04/02 18:24:29;;;;;;;;;;;;;;;4.78;36.20;97200.66;12746503;23;19924;-79
2022/04/02 18:29:50;;;;;;;;;;;;;;;4.79;35.65;97206.94;12777658;23;19928;-80
2022/04/02 18:35:10;;;;;;;;;;;;;;;4.79;35.83;97218.00;12752388;23;19925;-83
2022/04/02 18:40:32;;;;;;;;;;;;;;;4.79;35.86;97227.03;12753313;23;19920;-79
2022/04/02 18:45:52;;;;;;;;;;;;;;;4.77;35.56;97240.69;12825371;23;19911;-81
2022/04/02 18:51:13;;;;;;;;;;;;;;;4.70;35.75;97244.25;12793783;23;19927;-77
2022/04/02 18:56:34;;;;;;;;;;;;;;;4.63;36.72;97247.81;12800648;23;19921;-76
2022/04/02 19:01:54;;;;;;;;;;;;;;;4.54;36.73;97260.25;12755897;23;19920;-77
2022/04/02 19:07:15;;;;;;;;;;;;;;;4.52;37.28;97267.63;12807895;23;19951;-80
2022/04/02 19:24:39;;;;;;;;;;;;;;;4.48;37.75;97290.16;12823424;23;19952;-82
2022/04/02 19:30:07;;;;;;;;;;;;;;;4.50;37.70;97306.91;12765222;23;20364;-79
2022/04/02 19:35:28;;;;;;;;;;;;;;;4.46;38.74;97303.81;12777257;23;19920;-78
2022/04/02 19:40:54;;;;;;;;;;;;;;;4.39;38.67;97323.19;12849597;23;20003;-78
2022/04/02 19:46:15;;;;;;;;;;;;;;;4.42;38.89;97320.03;12768075;23;20331;-81
2022/04/02 19:51:36;;;;;;;;;;;;;;;4.37;38.62;97312.72;12771416;23;19923;-81
2022/04/02 19:56:57;;;;;;;;;;;;;;;4.34;38.99;97324.88;12814193;23;19931;-81
2022/04/02 20:02:17;;;;;;;;;;;;;;;4.23;39.68;97337.09;12817279;23;19904;-82
2022/04/02 20:07:43;;;;;;;;;;;;;;;4.14;40.03;97340.47;12802044;22;20359;-77
2022/04/02 20:13:04;;;;;;;;;;;;;;;4.07;38.90;97344.03;12840629;23;19987;-77
2022/04/02 20:18:25;;;;;;;;;;;;;;;3.90;40.33;97349.44;12840639;23;19927;-76
2022/04/02 20:23:46;;;;;;;;;;;;;;;3.81;40.48;97352.78;12840188;23;19919;-76
2022/04/02 20:29:08;;;;;;;;;;;;;;;3.74;41.46;97354.28;12860346;23;19963;-81
2022/04/02 20:34:29;;;;;;;;;;;;;;;3.70;41.13;97354.69;12886187;23;19904;-81
2022/04/02 20:39:59;;;;;;;;;;;;;;;3.69;40.68;97363.53;12898785;23;19915;-82
2022/04/02 20:45:38;;;;;;;;;;;;;;;3.69;41.16;97374.56;12877350;23;19904;-84
2022/04/02 20:51:06;;;;;;;;;;;;;;;3.65;41.54;97380.44;12899686;23;19931;-83
2022/04/02 20:56:28;;;;;;;;;;;;;;;3.64;41.33;97378.97;12899611;23;19927;-84
2022/04/02 21:01:49;;;;;;;;;;;;;;;3.57;40.96;97370.72;12878929;23;19947;-83
2022/04/02 21:07:10;;;;;;;;;;;;;;;3.49;42.42;97394.88;12826905;23;19928;-84
2022/04/02 21:12:30;;;;;;;;;;;;;;;3.46;42.44;97402.22;12800469;23;19904;-84
2022/04/02 21:17:51;;;;;;;;;;;;;;;3.40;41.79;97402.41;12841246;23;19943;-83
2022/04/02 21:23:12;;;;;;;;;;;;;;;3.35;41.97;97408.13;12841453;23;19905;-84
2022/04/02 21:28:33;;;;;;;;;;;;;;;3.16;42.93;97416.78;12841366;23;19920;-84
2022/04/02 21:33:55;;;;;;;;;;;;;;;2.99;43.47;97422.09;12820253;23;19919;-84
2022/04/02 21:39:17;;;;;;;;;;;;;;;2.91;43.44;97422.13;12840626;23;19904;-83
2022/04/02 21:44:38;;;;;;;;;;;;;;;2.82;43.65;97433.69;12840811;23;19948;-83
2022/04/02 21:49:59;;;;;;;;;;;;;;;2.84;44.59;97433.88;12840537;23;19920;-85
2022/04/02 21:55:19;;;;;;;;;;;;;;;2.78;44.29;97436.06;12840574;23;19927;-83
2022/04/02 22:00:47;;;;;;;;;;;;;;;2.80;44.76;97439.03;12799295;23;19920;-83
2022/04/02 22:06:08;;;;;;;;;;;;;;;2.72;45.05;97441.78;12816067;23;19908;-81
2022/04/02 22:11:29;;;;;;;;;;;;;;;2.69;44.73;97451.13;12819652;23;19904;-84
2022/04/02 22:16:51;;;;;;;;;;;;;;;2.67;45.42;97447.44;12840093;23;19927;-84
2022/04/02 22:22:12;;;;;;;;;;;;;;;2.56;44.47;97451.28;12817334;23;19904;-82
2022/04/02 22:27:33;;;;;;;;;;;;;;;2.52;45.71;97453.66;12817218;23;19920;-82
2022/04/02 22:32:54;;;;;;;;;;;;;;;2.50;46.19;97462.47;12858296;23;19912;-82
2022/04/02 22:38:15;;;;;;;;;;;;;;;2.46;46.84;97462.09;12837621;23;19915;-81
2022/04/02 22:43:37;;;;;;;;;;;;;;;2.41;46.75;97465.75;12837697;23;19936;-81
2022/04/02 22:48:58;;;;;;;;;;;;;;;2.37;46.85;97475.66;12816553;23;19904;-83
2022/04/02 22:54:19;;;;;;;;;;;;;;;2.28;47.27;97472.13;12795871;23;19911;-83
2022/04/02 22:59:42;;;;;;;;;;;;;;;2.24;46.63;97487.56;12795830;23;19911;-84
2022/04/02 23:05:07;;;;;;;;;;;;;;;2.16;48.17;97487.50;12815089;23;19923;-83
2022/04/02 23:10:29;;;;;;;;;;;;;;;2.08;47.91;97497.03;12816157;23;19920;-84
2022/04/02 23:15:51;;;;;;;;;;;;;;;2.02;48.28;97497.16;12795893;23;19904;-82
2022/04/02 23:21:17;;;;;;;;;;;;;;;1.89;49.00;97502.78;12817550;23;19905;-84
2022/04/02 23:26:38;;;;;;;;;;;;;;;1.76;48.80;97508.41;12814470;23;19921;-82
2022/04/02 23:32:00;;;;;;;;;;;;;;;1.71;48.65;97499.00;12790290;23;19931;-83
2022/04/02 23:37:22;;;;;;;;;;;;;;;1.68;48.88;97513.84;12815424;23;19911;-83
2022/04/02 23:42:43;;;;;;;;;;;;;;;1.59;48.97;97511.59;12815283;23;19916;-83
2022/04/02 23:48:06;;;;;;;;;;;;;;;1.53;49.02;97525.47;12815320;23;19925;-82
2022/04/02 23:53:27;;;;;;;;;;;;;;;1.49;49.65;97519.59;12816567;23;19947;-84
2022/04/02 23:58:50;;;;;;;;;;;;;;;1.42;50.04;97523.75;12814957;23;19936;-84
